Pagina principale
METAR-TAF:

METAR-TAF

Aeroporti :

Pamplona, Spagna

latitudine: 42-46N, longitudine: 001-38W, altezza: 459 m

Osservazione

Il bollettino è stato emesso 20 minuti fa, alle 22:30 UTC
Vento 3 kt da nord/nord-est
Temperature 17°C
Umidità 63%
Pressione 1016 hPa
Visibilità 10 km o più
nessuna nube inferiore a 1500 m e nessun cumulonembo

METAR: LEPP 292230Z AUTO 03003KT CAVOK 17/10 Q1016

Ora: 00:50 (22:50 UTC)

Previsione

Il bollettino è stato emesso 2 ore e 50 minuti fa, alle 20:00 UTC
Previsione valida dal 29 alle 21 UTC al 30 alle 21 UTC
Vento 10 kt da nord/nord-ovest
Visibilità 10 km o più
nessuna nube inferiore a 1500 m e nessun cumulonembo
Evoluzione graduale
dal 29 alle 21 UTC al 29 alle 24 UTC
Vento 3 kt da direzioni variabili

TAF: LEPP 292000Z 2921/3021 33010KT CAVOK TX29/3016Z TN12/3005Z BECMG 2921/2924 VRB03KT

Osservazioni e previsioni meteorologiche di più di 4000 aeroporti (messaggi METAR e TAF).

Le stazioni disponibili sono rappresentate dai dischi gialli e rossi sulla carta.

Puntare il mouse per vedere il nome della stazione.

Clicca sopra per visualizzare le osservazioni e previsioni meteorologiche.

Per cambiare la mappa : fare clic sui pulsanti verdi con una croce nera per ingrandire, il pulsante verde con un trattino per diminuire, o sulla freccia verde per le mappe adiacenti.


METAR-TAF: